Lanai, Lanai Airport (PHNY)

NameLanai Airport
CityLanai
CountryUnited States
ICAOPHNY
IATALNY
Altitude399 m
CoordinatesGoogle Map
Live Air TrafficLiveATC.net
METARPHNY 190456Z AUTO 09006KT 10SM CLR 21/21 A2995 RMK AO2 SLP121 T02110211 $
2019-11-19 04:56:00 Wind: East (90°) 3.09 m/s - Visibility: 16093.4 m - Temperature: 21 °C - Dew point: 21 °C - Humidity: 100% - Pressure: 1014.22 hPa
Statistics

The table below shows the detailed information of all flights to/from Lanai, Lanai Airport (PHNY).